Time;durP1;ratioP1;P1;durP2;ratioP2;P2;SDS_P1;SDS_P2;PMS_P1;PMS_P2;Temp;Humidity;BMP_temperature;BMP_pressure;BME280_temperature;BME280_humidity;BME280_pressure;Samples;Min_cycle;Max_cycle;Signal;HPM_P1;HPM_P2
2021/06/06 00:02:23;;;;;;;43.63;38.45;;;;;;;;;;3582792;40;20073;-67
2021/06/06 00:04:49;;;;;;;43.55;38.08;;;;;;;;;;3585058;40;20032;-67
2021/06/06 00:07:14;;;;;;;45.72;38.13;;;;;;;;;;3584281;40;20052;-67
2021/06/06 00:09:40;;;;;;;47.00;39.25;;;;;;;;;;3584361;40;20036;-67
2021/06/06 00:12:07;;;;;;;46.78;39.45;;;;;;;;;;3585376;40;20060;-67
2021/06/06 00:14:35;;;;;;;57.95;43.08;;;;;;;;;;3578583;40;20353;-67
2021/06/06 00:17:06;;;;;;;50.63;39.90;;;;;;;;;;3585188;40;20076;-65
2021/06/06 00:19:31;;;;;;;50.90;40.47;;;;;;;;;;3586088;40;20218;-65
2021/06/06 00:21:58;;;;;;;48.80;41.30;;;;;;;;;;3584074;40;20040;-65
2021/06/06 00:24:27;;;;;;;49.42;42.03;;;;;;;;;;3585980;40;20037;-65
2021/06/06 00:26:53;;;;;;;52.67;41.40;;;;;;;;;;3586529;40;20241;-66
2021/06/06 00:29:19;;;;;;;50.30;42.15;;;;;;;;;;3577971;40;20048;-66
2021/06/06 00:31:45;;;;;;;50.60;42.83;;;;;;;;;;3585566;40;20044;-66
2021/06/06 00:34:10;;;;;;;52.08;44.00;;;;;;;;;;3584843;40;20044;-66
2021/06/06 00:36:36;;;;;;;57.00;40.67;;;;;;;;;;3584854;40;20368;-66
2021/06/06 00:39:03;;;;;;;48.22;41.05;;;;;;;;;;3584990;40;20276;-66
2021/06/06 00:41:29;;;;;;;51.33;43.35;;;;;;;;;;3584028;40;20044;-66
2021/06/06 00:43:55;;;;;;;51.53;41.22;;;;;;;;;;3584048;40;20247;-66
2021/06/06 00:46:22;;;;;;;54.45;44.17;;;;;;;;;;3584848;40;20122;-66
2021/06/06 00:48:48;;;;;;;52.30;42.50;;;;;;;;;;3584959;40;20033;-66
2021/06/06 00:51:18;;;;;;;58.28;45.72;;;;;;;;;;3583441;40;20033;-66
2021/06/06 00:53:51;;;;;;;51.92;43.40;;;;;;;;;;3583923;40;20033;-66
2021/06/06 00:56:20;;;;;;;55.25;43.20;;;;;;;;;;3584493;40;20045;-66
2021/06/06 00:58:48;;;;;;;50.42;42.70;;;;;;;;;;3584724;40;20059;-66
2021/06/06 01:01:16;;;;;;;57.60;43.50;;;;;;;;;;3583085;40;20082;-66
2021/06/06 01:03:44;;;;;;;54.58;44.42;;;;;;;;;;3583408;40;20060;-66
2021/06/06 01:06:16;;;;;;;57.55;46.53;;;;;;;;;;3585597;40;20053;-65
2021/06/06 01:08:42;;;;;;;61.08;45.47;;;;;;;;;;3583189;40;20036;-66
2021/06/06 01:11:16;;;;;;;54.88;43.88;;;;;;;;;;3582588;40;20078;-66
2021/06/06 01:14:05;;;;;;;56.50;45.95;;;;;;;;;;3583242;40;20076;-65
2021/06/06 01:16:37;;;;;;;56.53;45.03;;;;;;;;;;3585598;40;20352;-66
2021/06/06 01:19:29;;;;;;;59.50;47.45;;;;;;;;;;3583382;40;20663;-66
2021/06/06 01:22:30;;;;;;;59.13;45.83;;;;;;;;;;3582331;40;20362;-66
2021/06/06 01:25:15;;;;;;;55.33;45.45;;;;;;;;;;3533783;40;20043;-66
2021/06/06 01:27:46;;;;;;;65.75;45.28;;;;;;;;;;3579422;40;20060;-66
2021/06/06 01:30:15;;;;;;;55.65;46.38;;;;;;;;;;3582360;40;20044;-66
2021/06/06 01:33:02;;;;;;;58.67;45.75;;;;;;;;;;3583825;40;20040;-65
2021/06/06 01:35:35;;;;;;;55.60;44.95;;;;;;;;;;3585594;40;20028;-65
2021/06/06 01:38:06;;;;;;;57.50;43.45;;;;;;;;;;3584128;40;20049;-66
2021/06/06 01:40:35;;;;;;;59.70;46.35;;;;;;;;;;3583918;40;20048;-66
2021/06/06 01:43:08;;;;;;;74.50;49.10;;;;;;;;;;3586947;40;20059;-65
2021/06/06 01:45:42;;;;;;;58.67;46.25;;;;;;;;;;3587712;40;20074;-65
2021/06/06 01:48:11;;;;;;;63.55;45.70;;;;;;;;;;3587180;40;20063;-65
2021/06/06 01:50:43;;;;;;;60.42;45.05;;;;;;;;;;3587488;40;20040;-65
2021/06/06 01:53:10;;;;;;;60.55;48.15;;;;;;;;;;3587183;40;20058;-65
2021/06/06 01:55:42;;;;;;;61.17;45.92;;;;;;;;;;3587727;40;20060;-65
2021/06/06 01:58:08;;;;;;;57.10;46.72;;;;;;;;;;3586840;40;20052;-65
2021/06/06 02:00:41;;;;;;;62.20;48.97;;;;;;;;;;3586091;40;20445;-65
2021/06/06 02:03:07;;;;;;;54.63;45.03;;;;;;;;;;3585961;40;20472;-65
2021/06/06 02:05:33;;;;;;;57.20;43.63;;;;;;;;;;3585454;40;20063;-65
2021/06/06 02:08:01;;;;;;;57.15;45.72;;;;;;;;;;3585938;40;20029;-65
2021/06/06 02:10:51;;;;;;;58.40;45.08;;;;;;;;;;3582420;40;20499;-65
2021/06/06 02:13:22;;;;;;;64.57;45.55;;;;;;;;;;3585407;40;20071;-65
2021/06/06 02:15:52;;;;;;;53.45;46.05;;;;;;;;;;3585798;40;20029;-65
2021/06/06 02:18:17;;;;;;;55.00;44.80;;;;;;;;;;3579302;40;20121;-65
2021/06/06 02:20:47;;;;;;;53.55;43.72;;;;;;;;;;3584353;40;20045;-64
2021/06/06 02:23:22;;;;;;;62.17;45.63;;;;;;;;;;3577212;40;20267;-65
2021/06/06 02:25:48;;;;;;;52.28;45.40;;;;;;;;;;3585606;40;20028;-64
2021/06/06 02:28:23;;;;;;;58.75;43.63;;;;;;;;;;3585049;40;20029;-64
2021/06/06 02:31:16;;;;;;;53.00;43.63;;;;;;;;;;3584142;40;20029;-64
2021/06/06 02:34:18;;;;;;;56.25;45.00;;;;;;;;;;3584124;40;20032;-64
2021/06/06 02:36:52;;;;;;;49.53;43.30;;;;;;;;;;3562985;40;20028;-65
2021/06/06 02:39:27;;;;;;;53.85;44.63;;;;;;;;;;3583267;40;20308;-64
2021/06/06 02:42:27;;;;;;;61.53;44.80;;;;;;;;;;3582906;40;20040;-64
2021/06/06 02:45:15;;;;;;;51.83;43.33;;;;;;;;;;3578455;40;20031;-64
2021/06/06 02:47:41;;;;;;;57.50;44.17;;;;;;;;;;3584598;40;20032;-64
2021/06/06 02:50:12;;;;;;;64.43;44.20;;;;;;;;;;3583440;40;20041;-64
2021/06/06 02:52:47;;;;;;;;;;;;;;;;;;3584907;40;20399;-64
2021/06/06 02:55:21;;;;;;;58.47;43.10;;;;;;;;;;3584937;40;19944;-64
2021/06/06 02:57:54;;;;;;;58.63;45.55;;;;;;;;;;3583426;40;20036;-65
2021/06/06 03:00:32;;;;;;;66.50;46.83;;;;;;;;;;3583719;40;20036;-64
2021/06/06 03:03:06;;;;;;;57.50;44.95;;;;;;;;;;3577219;40;20059;-64
2021/06/06 03:05:32;;;;;;;59.08;47.17;;;;;;;;;;3585064;40;20073;-64
2021/06/06 03:08:02;;;;;;;59.80;47.00;;;;;;;;;;3583199;40;20146;-64
2021/06/06 03:10:30;;;;;;;55.42;45.63;;;;;;;;;;3582256;40;20036;-64
2021/06/06 03:12:58;;;;;;;59.55;46.25;;;;;;;;;;3585452;40;20508;-62
2021/06/06 03:15:30;;;;;;;60.67;47.67;;;;;;;;;;3587093;40;20041;-62
2021/06/06 03:17:57;;;;;;;59.22;47.30;;;;;;;;;;3584334;40;20047;-62
2021/06/06 03:20:36;;;;;;;55.45;45.33;;;;;;;;;;3586195;40;20121;-64
2021/06/06 03:23:03;;;;;;;59.15;46.95;;;;;;;;;;3586515;40;20044;-64
2021/06/06 03:25:39;;;;;;;57.90;47.38;;;;;;;;;;3584661;40;20037;-62
2021/06/06 03:28:07;;;;;;;57.55;46.03;;;;;;;;;;3586067;40;20036;-63
2021/06/06 03:30:38;;;;;;;56.67;45.15;;;;;;;;;;3586077;40;20036;-63
2021/06/06 03:33:10;;;;;;;56.75;43.67;;;;;;;;;;3585006;40;20064;-63
2021/06/06 03:35:36;;;;;;;55.13;44.17;;;;;;;;;;3585671;40;20048;-63
2021/06/06 03:38:02;;;;;;;52.95;45.85;;;;;;;;;;3585898;40;20028;-63
2021/06/06 03:40:30;;;;;;;59.70;46.22;;;;;;;;;;3585729;40;20071;-63
2021/06/06 03:42:56;;;;;;;49.65;42.38;;;;;;;;;;3584089;40;20063;-63
2021/06/06 03:45:22;;;;;;;51.67;42.35;;;;;;;;;;3584840;40;20130;-63
2021/06/06 03:47:48;;;;;;;50.53;42.53;;;;;;;;;;3585272;40;20055;-63
2021/06/06 03:50:16;;;;;;;48.75;40.92;;;;;;;;;;3584564;40;20070;-63
2021/06/06 03:52:43;;;;;;;52.53;43.17;;;;;;;;;;3584965;40;20068;-63
2021/06/06 03:55:12;;;;;;;46.47;40.90;;;;;;;;;;3585369;40;20072;-63
2021/06/06 03:57:38;;;;;;;52.00;42.55;;;;;;;;;;3584432;40;20032;-63
2021/06/06 04:00:14;;;;;;;49.63;40.88;;;;;;;;;;3583574;40;20052;-63
2021/06/06 04:02:41;;;;;;;50.72;39.85;;;;;;;;;;3584252;40;20047;-63
2021/06/06 04:05:06;;;;;;;45.03;40.15;;;;;;;;;;3584862;40;20489;-63
2021/06/06 04:07:32;;;;;;;47.53;39.85;;;;;;;;;;3584295;40;20045;-63
2021/06/06 04:09:57;;;;;;;43.72;38.20;;;;;;;;;;3582364;40;20037;-63
2021/06/06 04:12:23;;;;;;;46.70;40.10;;;;;;;;;;3583152;40;20049;-63
2021/06/06 04:14:48;;;;;;;45.33;37.60;;;;;;;;;;3585027;40;20032;-63
2021/06/06 04:17:13;;;;;;;48.08;38.42;;;;;;;;;;3585154;40;20036;-63
2021/06/06 04:19:39;;;;;;;50.28;36.70;;;;;;;;;;3582818;40;20048;-62
2021/06/06 04:22:04;;;;;;;41.20;36.63;;;;;;;;;;3583667;40;20076;-63
2021/06/06 04:24:30;;;;;;;44.67;36.67;;;;;;;;;;3585579;40;20033;-62
2021/06/06 04:26:55;;;;;;;42.38;37.78;;;;;;;;;;3584510;40;20044;-64
2021/06/06 04:29:21;;;;;;;42.65;36.20;;;;;;;;;;3582765;40;20407;-62
2021/06/06 04:31:46;;;;;;;42.70;35.03;;;;;;;;;;3583484;40;20125;-63
2021/06/06 04:34:12;;;;;;;39.90;35.63;;;;;;;;;;3585574;40;20044;-62
2021/06/06 04:36:37;;;;;;;39.72;35.08;;;;;;;;;;3584274;40;20024;-62
2021/06/06 04:39:04;;;;;;;44.13;37.22;;;;;;;;;;3582312;40;20044;-62
2021/06/06 04:41:30;;;;;;;41.45;36.05;;;;;;;;;;3585350;40;20353;-62
2021/06/06 04:43:56;;;;;;;41.28;34.90;;;;;;;;;;3574513;40;20048;-63
2021/06/06 04:46:21;;;;;;;38.65;34.53;;;;;;;;;;3576160;40;20040;-62
2021/06/06 04:48:47;;;;;;;38.40;34.10;;;;;;;;;;3585917;40;20363;-63
2021/06/06 04:51:19;;;;;;;39.53;35.30;;;;;;;;;;3586671;40;20072;-63
2021/06/06 04:53:46;;;;;;;41.25;35.08;;;;;;;;;;3585608;40;20056;-63
2021/06/06 04:56:14;;;;;;;43.30;34.35;;;;;;;;;;3586033;40;20372;-63
2021/06/06 04:58:40;;;;;;;38.75;33.03;;;;;;;;;;3585141;40;20048;-62
2021/06/06 05:01:05;;;;;;;37.25;33.15;;;;;;;;;;3585474;40;20048;-63
2021/06/06 05:03:31;;;;;;;43.65;30.88;;;;;;;;;;3585911;40;20052;-63
2021/06/06 05:05:56;;;;;;;37.00;32.28;;;;;;;;;;3585526;40;20033;-62
2021/06/06 05:08:23;;;;;;;35.20;30.80;;;;;;;;;;3585775;40;20036;-62
2021/06/06 05:10:50;;;;;;;38.78;30.77;;;;;;;;;;3585863;40;20267;-62
2021/06/06 05:13:16;;;;;;;36.33;30.30;;;;;;;;;;3586260;40;20070;-62
2021/06/06 05:15:42;;;;;;;35.67;31.35;;;;;;;;;;3586255;40;20032;-62
2021/06/06 05:18:09;;;;;;;35.80;31.23;;;;;;;;;;3586717;40;20074;-63
2021/06/06 05:20:37;;;;;;;33.83;29.00;;;;;;;;;;3578177;40;20041;-62
2021/06/06 05:23:04;;;;;;;35.45;29.33;;;;;;;;;;3585866;40;20180;-62
2021/06/06 05:25:29;;;;;;;32.53;26.98;;;;;;;;;;3586281;40;20293;-62
2021/06/06 05:27:55;;;;;;;31.77;26.13;;;;;;;;;;3587155;40;20033;-63
2021/06/06 05:30:25;;;;;;;30.95;27.13;;;;;;;;;;3584844;40;20044;-63
2021/06/06 05:32:52;;;;;;;31.67;25.50;;;;;;;;;;3585612;40;20029;-63
2021/06/06 05:35:19;;;;;;;27.38;24.20;;;;;;;;;;3586410;40;20037;-63
2021/06/06 05:37:44;;;;;;;31.48;24.63;;;;;;;;;;3585541;40;20029;-63
2021/06/06 05:40:11;;;;;;;34.15;24.15;;;;;;;;;;3583689;40;20051;-63
2021/06/06 05:42:37;;;;;;;26.23;21.25;;;;;;;;;;3576126;40;20056;-63
2021/06/06 05:45:03;;;;;;;26.45;22.65;;;;;;;;;;3586357;40;20269;-63
2021/06/06 05:47:29;;;;;;;34.53;21.70;;;;;;;;;;3585512;40;20069;-63
2021/06/06 05:49:54;;;;;;;28.75;22.42;;;;;;;;;;3569382;40;20044;-63
2021/06/06 05:52:19;;;;;;;27.05;22.55;;;;;;;;;;3584254;40;20061;-63
2021/06/06 05:54:45;;;;;;;23.88;21.27;;;;;;;;;;3586290;40;20643;-63
2021/06/06 05:57:10;;;;;;;25.58;22.27;;;;;;;;;;3585090;40;20048;-63
2021/06/06 05:59:35;;;;;;;27.52;22.83;;;;;;;;;;3576820;40;20053;-63
2021/06/06 06:02:01;;;;;;;24.80;21.98;;;;;;;;;;3577508;40;20682;-63
2021/06/06 06:04:26;;;;;;;24.65;20.92;;;;;;;;;;3589162;40;20134;-63
2021/06/06 06:06:52;;;;;;;24.77;20.48;;;;;;;;;;3583842;40;20272;-63
2021/06/06 06:09:17;;;;;;;23.00;20.25;;;;;;;;;;3584026;40;20368;-63
2021/06/06 06:11:43;;;;;;;21.58;19.38;;;;;;;;;;3585117;40;20090;-63
2021/06/06 06:14:08;;;;;;;23.02;20.38;;;;;;;;;;3585184;40;20043;-63
2021/06/06 06:16:38;;;;;;;23.75;20.48;;;;;;;;;;3584172;40;20374;-63
2021/06/06 06:19:08;;;;;;;25.27;20.70;;;;;;;;;;3584386;40;20162;-62
2021/06/06 06:21:34;;;;;;;30.13;21.35;;;;;;;;;;3586848;40;20039;-62
2021/06/06 06:23:59;;;;;;;22.55;20.20;;;;;;;;;;3585731;40;20032;-63
2021/06/06 06:26:25;;;;;;;25.95;21.50;;;;;;;;;;3583903;40;20034;-63
2021/06/06 06:28:51;;;;;;;29.25;22.42;;;;;;;;;;3585340;40;20032;-63
2021/06/06 06:31:18;;;;;;;28.02;22.50;;;;;;;;;;3586729;40;20793;-63
2021/06/06 06:33:44;;;;;;;25.15;22.30;;;;;;;;;;3586314;40;20128;-63
2021/06/06 06:36:11;;;;;;;27.65;23.02;;;;;;;;;;3586235;40;20037;-63
2021/06/06 06:38:37;;;;;;;31.10;23.92;;;;;;;;;;3585550;40;20377;-63
2021/06/06 06:41:03;;;;;;;26.83;21.85;;;;;;;;;;3586552;40;20037;-63
2021/06/06 06:43:29;;;;;;;34.50;25.15;;;;;;;;;;3585784;40;20038;-63
2021/06/06 06:45:54;;;;;;;37.17;25.77;;;;;;;;;;3585604;40;20033;-63
2021/06/06 06:48:22;;;;;;;40.90;25.02;;;;;;;;;;3585736;40;20294;-62
2021/06/06 06:50:50;;;;;;;37.78;25.80;;;;;;;;;;3583741;40;20036;-62
2021/06/06 06:53:16;;;;;;;34.42;25.35;;;;;;;;;;3585440;40;20039;-62
2021/06/06 06:55:42;;;;;;;34.60;26.60;;;;;;;;;;3584708;40;20063;-61
2021/06/06 06:58:08;;;;;;;33.22;25.83;;;;;;;;;;3586428;40;20418;-61
2021/06/06 07:00:38;;;;;;;37.33;26.95;;;;;;;;;;3584098;40;20178;-61
2021/06/06 07:03:08;;;;;;;29.20;24.77;;;;;;;;;;3584523;40;20022;-61
2021/06/06 07:05:34;;;;;;;36.22;26.00;;;;;;;;;;3584455;40;20025;-61
2021/06/06 07:08:00;;;;;;;36.10;26.58;;;;;;;;;;3577703;40;20036;-62
2021/06/06 07:10:30;;;;;;;30.95;23.52;;;;;;;;;;3583289;40;20031;-62
2021/06/06 07:12:55;;;;;;;31.88;24.05;;;;;;;;;;3584201;40;20048;-61
2021/06/06 07:15:21;;;;;;;32.28;22.42;;;;;;;;;;3586172;40;20482;-60
2021/06/06 07:17:47;;;;;;;24.67;20.75;;;;;;;;;;3583208;40;20272;-60
2021/06/06 07:20:16;;;;;;;29.85;19.55;;;;;;;;;;3584570;40;20032;-61
2021/06/06 07:22:41;;;;;;;27.00;19.73;;;;;;;;;;3583487;40;20044;-61
2021/06/06 07:25:09;;;;;;;21.88;18.30;;;;;;;;;;3585683;40;20037;-61
2021/06/06 07:27:38;;;;;;;24.08;18.45;;;;;;;;;;3584412;40;20041;-61
2021/06/06 07:30:09;;;;;;;21.30;17.33;;;;;;;;;;3574989;40;20109;-61
2021/06/06 07:32:35;;;;;;;25.73;17.35;;;;;;;;;;3584445;40;20035;-61
2021/06/06 07:35:02;;;;;;;21.65;16.40;;;;;;;;;;3584569;40;20037;-61
2021/06/06 07:37:27;;;;;;;16.90;15.13;;;;;;;;;;3584033;40;20049;-62
2021/06/06 07:39:53;;;;;;;18.67;14.55;;;;;;;;;;3582152;40;20066;-61
2021/06/06 07:42:18;;;;;;;21.45;14.85;;;;;;;;;;3584292;40;20379;-61
2021/06/06 07:44:43;;;;;;;17.95;12.82;;;;;;;;;;3584668;40;20074;-61
2021/06/06 07:47:09;;;;;;;22.88;14.25;;;;;;;;;;3583373;40;20280;-62
2021/06/06 07:49:37;;;;;;;16.55;13.93;;;;;;;;;;3582097;40;20052;-62
2021/06/06 07:52:03;;;;;;;16.52;12.50;;;;;;;;;;3586578;40;20049;-61
2021/06/06 07:54:28;;;;;;;17.58;13.10;;;;;;;;;;3587106;40;20021;-61
2021/06/06 07:56:57;;;;;;;15.13;12.35;;;;;;;;;;3584518;40;20299;-61
2021/06/06 07:59:23;;;;;;;14.15;11.20;;;;;;;;;;3585800;40;20051;-62
2021/06/06 08:01:48;;;;;;;14.95;11.70;;;;;;;;;;3586350;40;20040;-61
2021/06/06 08:04:14;;;;;;;13.48;10.57;;;;;;;;;;3586563;40;20399;-61
2021/06/06 08:06:39;;;;;;;12.90;11.00;;;;;;;;;;3586034;40;20039;-61
2021/06/06 08:09:05;;;;;;;12.93;10.40;;;;;;;;;;3579512;40;20576;-61
2021/06/06 08:11:32;;;;;;;13.30;10.65;;;;;;;;;;3585152;40;20043;-61
2021/06/06 08:13:57;;;;;;;14.65;10.63;;;;;;;;;;3584981;40;20090;-61
2021/06/06 08:16:23;;;;;;;14.25;9.55;;;;;;;;;;3585155;40;20052;-61
2021/06/06 08:18:48;;;;;;;12.30;10.07;;;;;;;;;;3578986;40;20048;-61
2021/06/06 08:21:22;;;;;;;15.07;9.75;;;;;;;;;;3584582;40;20035;-61
2021/06/06 08:23:48;;;;;;;10.32;8.15;;;;;;;;;;3584017;40;20117;-61
2021/06/06 08:26:17;;;;;;;12.43;9.43;;;;;;;;;;3585195;40;20035;-61
2021/06/06 08:28:42;;;;;;;11.65;8.70;;;;;;;;;;3584676;40;20040;-61
2021/06/06 08:31:12;;;;;;;12.45;9.02;;;;;;;;;;3582883;40;20051;-61
2021/06/06 08:33:39;;;;;;;10.50;8.07;;;;;;;;;;3584762;40;20029;-61
2021/06/06 08:36:08;;;;;;;9.93;8.18;;;;;;;;;;3584646;40;20122;-61
2021/06/06 08:38:33;;;;;;;9.23;7.38;;;;;;;;;;3583672;40;20025;-61
2021/06/06 08:41:10;;;;;;;10.02;8.05;;;;;;;;;;3575292;40;20044;-62
2021/06/06 08:43:53;;;;;;;11.00;7.55;;;;;;;;;;3583578;40;20378;-61
2021/06/06 08:46:20;;;;;;;8.73;7.00;;;;;;;;;;3583982;40;20407;-61
2021/06/06 08:48:45;;;;;;;9.20;7.20;;;;;;;;;;3581081;40;20029;-62
2021/06/06 08:51:25;;;;;;;9.68;7.65;;;;;;;;;;3584051;40;20459;-61
2021/06/06 08:54:14;;;;;;;8.85;6.63;;;;;;;;;;3585267;40;20272;-61
2021/06/06 08:56:40;;;;;;;7.63;6.35;;;;;;;;;;3583626;40;20450;-61
2021/06/06 08:59:11;;;;;;;9.05;6.57;;;;;;;;;;3582986;40;20025;-61
2021/06/06 09:01:53;;;;;;;8.02;6.18;;;;;;;;;;3583306;40;20044;-60
2021/06/06 09:04:22;;;;;;;9.45;6.13;;;;;;;;;;3586214;40;20032;-61
2021/06/06 09:06:57;;;;;;;8.05;5.88;;;;;;;;;;3582525;40;20051;-60
2021/06/06 09:09:30;;;;;;;7.32;5.93;;;;;;;;;;3583732;40;20396;-61
2021/06/06 09:12:00;;;;;;;8.82;5.93;;;;;;;;;;3584326;40;20060;-61
2021/06/06 09:14:27;;;;;;;8.63;6.70;;;;;;;;;;3584358;40;20060;-61
2021/06/06 09:17:11;;;;;;;7.47;5.78;;;;;;;;;;3582123;40;20036;-60
2021/06/06 09:19:39;;;;;;;5.78;4.95;;;;;;;;;;3581733;40;20387;-60
2021/06/06 09:22:05;;;;;;;7.47;5.35;;;;;;;;;;3585140;40;20040;-60
2021/06/06 09:24:42;;;;;;;8.02;5.70;;;;;;;;;;3585087;40;20044;-60
2021/06/06 09:27:23;;;;;;;7.30;5.00;;;;;;;;;;3586035;40;20371;-61
2021/06/06 09:29:59;;;;;;;6.10;5.22;;;;;;;;;;3582625;40;20029;-61
2021/06/06 09:32:25;;;;;;;6.70;5.38;;;;;;;;;;3586075;40;20041;-60
2021/06/06 09:35:05;;;;;;;7.43;5.55;;;;;;;;;;3578114;40;20052;-60
2021/06/06 09:37:35;;;;;;;8.35;5.25;;;;;;;;;;3575776;40;20044;-60
2021/06/06 09:40:08;;;;;;;7.35;5.03;;;;;;;;;;3584102;40;20322;-60
2021/06/06 09:42:47;;;;;;;5.45;4.70;;;;;;;;;;3584818;40;20541;-60
2021/06/06 09:45:29;;;;;;;6.55;4.38;;;;;;;;;;3586871;40;20033;-60
2021/06/06 09:48:27;;;;;;;5.65;4.38;;;;;;;;;;3585097;40;20041;-61
2021/06/06 09:50:54;;;;;;;6.85;4.80;;;;;;;;;;3557571;40;20591;-59
2021/06/06 09:53:35;;;;;;;8.48;6.20;;;;;;;;;;3576753;40;20463;-60
2021/06/06 09:56:07;;;;;;;;;;;;;;;;;;3586237;40;20075;-61
2021/06/06 09:58:36;;;;;;;5.95;4.72;;;;;;;;;;3580615;40;20288;-61
2021/06/06 10:01:18;;;;;;;7.80;4.78;;;;;;;;;;3584074;40;20380;-60
2021/06/06 10:03:54;;;;;;;5.65;4.40;;;;;;;;;;3585175;40;20086;-61
2021/06/06 10:06:31;;;;;;;6.65;4.60;;;;;;;;;;3585759;40;20037;-61
2021/06/06 10:09:17;;;;;;;6.10;4.70;;;;;;;;;;3583510;40;20032;-60
2021/06/06 10:12:01;;;;;;;5.13;3.90;;;;;;;;;;3569142;40;20024;-58
2021/06/06 10:14:47;;;;;;;10.55;8.77;;;;;;;;;;3585976;40;20037;-59
2021/06/06 10:17:19;;;;;;;5.38;4.60;;;;;;;;;;3584224;40;20076;-59
2021/06/06 10:20:00;;;;;;;6.97;5.03;;;;;;;;;;3575675;40;20041;-59
2021/06/06 10:22:30;;;;;;;10.63;9.57;;;;;;;;;;3585852;40;20050;-59
2021/06/06 10:25:09;;;;;;;7.32;5.68;;;;;;;;;;3586598;40;20043;-59
2021/06/06 10:27:39;;;;;;;5.95;5.13;;;;;;;;;;3583835;40;20125;-59
2021/06/06 10:30:13;;;;;;;5.75;4.78;;;;;;;;;;3583859;40;20029;-60
2021/06/06 10:32:44;;;;;;;6.05;4.45;;;;;;;;;;3586608;40;20044;-59
2021/06/06 10:35:14;;;;;;;5.55;4.32;;;;;;;;;;3585307;40;20356;-59
2021/06/06 10:37:42;;;;;;;4.97;4.00;;;;;;;;;;3583545;40;20138;-59
2021/06/06 10:40:11;;;;;;;6.28;4.78;;;;;;;;;;3583377;40;20045;-60
2021/06/06 10:42:43;;;;;;;7.63;5.35;;;;;;;;;;3586353;40;20048;-60
2021/06/06 10:45:20;;;;;;;8.77;5.07;;;;;;;;;;3584572;40;20060;-60
2021/06/06 10:47:49;;;;;;;5.25;4.20;;;;;;;;;;3583197;40;20037;-59
2021/06/06 10:50:37;;;;;;;5.50;4.63;;;;;;;;;;3584711;40;20041;-59
2021/06/06 10:53:25;;;;;;;5.55;4.63;;;;;;;;;;3575959;40;20323;-60
2021/06/06 10:55:58;;;;;;;5.68;4.93;;;;;;;;;;3582892;40;20041;-59
2021/06/06 10:58:33;;;;;;;9.10;4.60;;;;;;;;;;3577401;40;20200;-59
2021/06/06 11:01:18;;;;;;;6.97;4.88;;;;;;;;;;3586648;40;20083;-59
2021/06/06 11:03:46;;;;;;;6.00;4.63;;;;;;;;;;3585953;40;20048;-59
2021/06/06 11:06:31;;;;;;;6.57;4.78;;;;;;;;;;3586472;40;20080;-60
2021/06/06 11:08:57;;;;;;;9.00;4.47;;;;;;;;;;3583358;40;20540;-60
2021/06/06 11:11:25;;;;;;;6.65;4.80;;;;;;;;;;3586537;40;20028;-61
2021/06/06 11:14:12;;;;;;;6.78;5.13;;;;;;;;;;3584185;40;20043;-61
2021/06/06 11:16:52;;;;;;;7.65;5.60;;;;;;;;;;3584652;40;20038;-61
2021/06/06 11:19:18;;;;;;;6.30;4.95;;;;;;;;;;3584974;40;20051;-61
2021/06/06 11:21:57;;;;;;;5.90;4.80;;;;;;;;;;3585265;40;20033;-61
2021/06/06 11:24:40;;;;;;;9.73;5.25;;;;;;;;;;3585114;40;20134;-61
2021/06/06 11:27:15;;;;;;;7.05;5.13;;;;;;;;;;3584375;40;20037;-60
2021/06/06 11:29:59;;;;;;;6.13;5.47;;;;;;;;;;3584065;40;22527;-61
2021/06/06 11:32:36;;;;;;;6.95;5.07;;;;;;;;;;3585310;40;20043;-61
2021/06/06 11:35:05;;;;;;;6.05;5.18;;;;;;;;;;3585809;39;20048;-61
2021/06/06 11:37:30;;;;;;;7.20;5.72;;;;;;;;;;3584759;40;20040;-62
2021/06/06 11:40:03;;;;;;;6.45;5.13;;;;;;;;;;3583477;40;20053;-61
2021/06/06 11:42:35;;;;;;;8.45;5.13;;;;;;;;;;3584729;40;20076;-60
2021/06/06 11:45:07;;;;;;;7.10;5.22;;;;;;;;;;3584026;40;20311;-61
2021/06/06 11:47:42;;;;;;;5.82;4.65;;;;;;;;;;3584302;40;20287;-62
2021/06/06 11:50:12;;;;;;;6.88;5.07;;;;;;;;;;3584282;40;20158;-60
2021/06/06 11:52:51;;;;;;;6.20;5.13;;;;;;;;;;3583732;40;20119;-61
2021/06/06 11:55:29;;;;;;;7.25;5.45;;;;;;;;;;3585759;40;20111;-60
2021/06/06 11:58:08;;;;;;;6.22;5.13;;;;;;;;;;3583902;40;20072;-61
2021/06/06 12:01:02;;;;;;;5.45;4.57;;;;;;;;;;3583395;40;20305;-60
2021/06/06 12:03:36;;;;;;;6.95;5.43;;;;;;;;;;3583121;40;20035;-61
2021/06/06 12:06:22;;;;;;;10.43;4.63;;;;;;;;;;3583692;40;20049;-59
2021/06/06 12:08:57;;;;;;;6.65;5.68;;;;;;;;;;3583532;40;20033;-61
2021/06/06 12:11:28;;;;;;;6.03;5.32;;;;;;;;;;3584188;40;20133;-60
2021/06/06 12:14:17;;;;;;;7.97;5.13;;;;;;;;;;3584097;40;20041;-61
2021/06/06 12:17:00;;;;;;;6.88;5.55;;;;;;;;;;3584692;40;20025;-60
2021/06/06 12:19:37;;;;;;;10.98;5.03;;;;;;;;;;3583283;40;20104;-62
2021/06/06 12:22:09;;;;;;;5.90;5.20;;;;;;;;;;3584135;40;20032;-61
2021/06/06 12:24:35;;;;;;;6.13;5.50;;;;;;;;;;3575410;40;20095;-61
2021/06/06 12:27:13;;;;;;;6.13;5.50;;;;;;;;;;3584365;40;20037;-60
2021/06/06 12:29:47;;;;;;;5.93;4.88;;;;;;;;;;3583971;40;20053;-62
2021/06/06 12:32:21;;;;;;;6.10;4.35;;;;;;;;;;3585440;40;20047;-62
2021/06/06 12:34:46;;;;;;;6.85;5.15;;;;;;;;;;3585196;40;20056;-61
2021/06/06 12:37:22;;;;;;;6.13;4.88;;;;;;;;;;3584655;40;20052;-61
2021/06/06 12:39:51;;;;;;;5.57;4.90;;;;;;;;;;3584647;40;20052;-61
2021/06/06 12:42:17;;;;;;;5.97;4.55;;;;;;;;;;3577893;40;20032;-61
2021/06/06 12:44:48;;;;;;;5.55;4.60;;;;;;;;;;3584731;40;20059;-61
2021/06/06 12:47:31;;;;;;;5.78;4.90;;;;;;;;;;3584730;40;20118;-62
2021/06/06 12:50:02;;;;;;;6.07;4.95;;;;;;;;;;3584178;40;20029;-60
2021/06/06 12:52:45;;;;;;;6.18;4.63;;;;;;;;;;3584732;40;20043;-61
2021/06/06 12:55:19;;;;;;;7.40;5.45;;;;;;;;;;3585219;40;20041;-61
2021/06/06 12:58:22;;;;;;;6.55;5.72;;;;;;;;;;3584774;40;20483;-62
2021/06/06 13:00:53;;;;;;;8.00;5.78;;;;;;;;;;3583124;40;20368;-61
2021/06/06 13:03:18;;;;;;;15.68;6.25;;;;;;;;;;3584818;40;20045;-61
2021/06/06 13:05:46;;;;;;;7.28;6.10;;;;;;;;;;3585323;40;20029;-61
2021/06/06 13:08:37;;;;;;;6.50;5.50;;;;;;;;;;3583507;40;20041;-61
2021/06/06 13:11:09;;;;;;;9.95;5.53;;;;;;;;;;3583047;40;20033;-61
2021/06/06 13:13:45;;;;;;;9.07;5.72;;;;;;;;;;3583109;40;20029;-61
2021/06/06 13:16:45;;;;;;;6.75;5.88;;;;;;;;;;3584327;40;20259;-61
2021/06/06 13:19:16;;;;;;;7.75;6.50;;;;;;;;;;3582449;40;20047;-61
2021/06/06 13:22:10;;;;;;;7.95;6.53;;;;;;;;;;3582642;40;20050;-61
2021/06/06 13:24:40;;;;;;;13.95;5.95;;;;;;;;;;3572415;40;20047;-61
2021/06/06 13:27:27;;;;;;;7.95;6.80;;;;;;;;;;3583091;40;20033;-61
2021/06/06 13:29:56;;;;;;;9.05;6.07;;;;;;;;;;3582790;40;20084;-61
2021/06/06 13:32:35;;;;;;;7.53;6.15;;;;;;;;;;3584574;40;20032;-60
2021/06/06 13:35:03;;;;;;;9.10;6.47;;;;;;;;;;3587904;40;20115;-61
2021/06/06 13:37:32;;;;;;;7.72;6.18;;;;;;;;;;3584196;40;20064;-61
2021/06/06 13:40:18;;;;;;;7.47;6.55;;;;;;;;;;3582969;40;20033;-61
2021/06/06 13:42:43;;;;;;;7.60;6.22;;;;;;;;;;3586423;40;20514;-60
2021/06/06 13:45:09;;;;;;;7.85;6.00;;;;;;;;;;3585193;40;20056;-61
2021/06/06 13:47:35;;;;;;;9.27;5.95;;;;;;;;;;3577338;40;20072;-61
2021/06/06 13:50:03;;;;;;;7.22;6.43;;;;;;;;;;3583970;40;20146;-61
2021/06/06 13:52:28;;;;;;;6.93;5.85;;;;;;;;;;3585126;40;20394;-61
2021/06/06 13:54:54;;;;;;;7.25;6.22;;;;;;;;;;3584022;40;20105;-61
2021/06/06 13:57:20;;;;;;;8.20;6.00;;;;;;;;;;3584799;40;20040;-61
2021/06/06 13:59:45;;;;;;;7.43;5.68;;;;;;;;;;3585295;40;20312;-61
2021/06/06 14:02:12;;;;;;;10.25;8.45;;;;;;;;;;3586673;40;20340;-61
2021/06/06 14:04:38;;;;;;;10.32;8.55;;;;;;;;;;3579296;40;20043;-61
2021/06/06 14:07:05;;;;;;;9.40;8.13;;;;;;;;;;3578764;40;20381;-61
2021/06/06 14:09:30;;;;;;;12.05;9.68;;;;;;;;;;3586489;40;20266;-61
2021/06/06 14:12:00;;;;;;;10.73;9.57;;;;;;;;;;3587168;40;20029;-61
2021/06/06 14:14:26;;;;;;;12.68;10.52;;;;;;;;;;3586973;40;20306;-61
2021/06/06 14:16:52;;;;;;;14.50;10.55;;;;;;;;;;3586189;40;20059;-61
2021/06/06 14:19:19;;;;;;;14.20;10.45;;;;;;;;;;3587003;40;20056;-61
2021/06/06 14:21:46;;;;;;;11.70;10.27;;;;;;;;;;3585996;40;20055;-61
2021/06/06 14:24:14;;;;;;;12.30;11.00;;;;;;;;;;3585660;40;20047;-62
2021/06/06 14:26:44;;;;;;;12.27;11.07;;;;;;;;;;3579126;40;20905;-62
2021/06/06 14:29:12;;;;;;;15.38;11.90;;;;;;;;;;3585213;40;20044;-62
2021/06/06 14:31:39;;;;;;;12.50;11.20;;;;;;;;;;3585729;40;20048;-62
2021/06/06 14:34:05;;;;;;;14.52;11.10;;;;;;;;;;3584996;40;20033;-62
2021/06/06 14:36:32;;;;;;;14.68;12.07;;;;;;;;;;3585866;40;20573;-62
2021/06/06 14:38:58;;;;;;;13.25;11.77;;;;;;;;;;3583602;40;20044;-61
2021/06/06 14:41:28;;;;;;;14.40;11.70;;;;;;;;;;3585564;40;20051;-61
2021/06/06 14:43:55;;;;;;;12.15;10.90;;;;;;;;;;3585089;40;20139;-61
2021/06/06 14:46:22;;;;;;;13.90;11.40;;;;;;;;;;3584837;40;20048;-62
2021/06/06 14:48:47;;;;;;;13.80;10.80;;;;;;;;;;3583401;40;20048;-62